Time;durP1;ratioP1;P1;durP2;ratioP2;P2;SDS_P1;SDS_P2;PMS_P1;PMS_P2;Temp;Humidity;BMP_temperature;BMP_pressure;BME280_temperature;BME280_humidity;BME280_pressure;Samples;Min_cycle;Max_cycle;Signal;HPM_P1;HPM_P2
2021/11/05 00:32:37;;;;;;;;;;;;;;;;;;;;;
2021/11/05 00:35:04;;;;;;;2.15;1.13;;;;;;;4.10;68.35;101054.94;6334741;22;20086;-78
2021/11/05 00:37:44;;;;;;;1.15;1.02;;;;;;;3.95;68.23;101031.63;6332518;22;19995;-76
2021/11/05 00:40:11;;;;;;;1.48;1.38;;;;;;;4.13;68.56;101054.53;6312090;22;20032;-74
2021/11/05 00:42:46;;;;;;;2.53;1.00;;;;;;;4.00;68.29;101037.25;6336456;22;20413;-73
2021/11/05 00:45:14;;;;;;;1.52;1.10;;;;;;;4.11;68.35;101059.31;6336347;22;20007;-74
2021/11/05 00:47:49;;;;;;;1.60;1.50;;;;;;;3.99;68.70;101043.69;6307380;22;20324;-74
2021/11/05 00:50:14;;;;;;;1.50;1.40;;;;;;;3.96;68.28;101044.13;6312605;22;20006;-72
2021/11/05 00:52:40;;;;;;;2.38;1.42;;;;;;;3.97;68.93;101051.22;6318987;22;20017;-74
2021/11/05 00:55:09;;;;;;;1.13;1.13;;;;;;;4.01;68.73;101055.13;6350331;22;20014;-74
2021/11/05 00:57:35;;;;;;;4.15;1.38;;;;;;;3.98;69.03;101052.84;6310866;22;20010;-73
2021/11/05 01:00:01;;;;;;;2.53;1.50;;;;;;;3.98;68.94;101052.84;6311871;22;20007;-73
2021/11/05 01:02:28;;;;;;;1.50;1.40;;;;;;;3.98;69.23;101063.69;6336740;22;20007;-74
2021/11/05 01:04:53;;;;;;;1.60;1.48;;;;;;;3.97;69.26;101063.88;6310917;22;20013;-73
2021/11/05 01:07:29;;;;;;;;;;;;;;;;;;;;;
2021/11/05 01:09:55;;;;;;;1.52;1.10;;;;;;;3.92;69.29;101061.81;6339217;22;20078;-75
2021/11/05 01:12:24;;;;;;;2.55;1.23;;;;;;;3.91;69.39;101060.13;6335652;22;19998;-74
2021/11/05 01:14:50;;;;;;;1.48;1.38;;;;;;;3.85;69.19;101055.53;6339985;22;19998;-75
2021/11/05 01:17:16;;;;;;;1.90;1.60;;;;;;;3.84;69.74;101056.56;6342435;22;20003;-74
2021/11/05 01:19:43;;;;;;;3.83;1.60;;;;;;;3.84;69.62;101065.53;6336507;22;20006;-75
2021/11/05 01:22:10;;;;;;;6.53;1.77;;;;;;;3.85;69.57;101066.38;6310189;22;20014;-76
2021/11/05 01:24:36;;;;;;;1.95;1.75;;;;;;;3.87;69.95;101071.56;6308481;22;20078;-74
2021/11/05 01:27:01;;;;;;;2.08;1.88;;;;;;;3.85;69.98;101066.38;6336268;22;20720;-74
2021/11/05 01:29:27;;;;;;;1.70;1.38;;;;;;;3.77;69.90;101058.47;6310328;22;20490;-76
2021/11/05 01:31:52;;;;;;;2.45;1.38;;;;;;;3.74;69.88;101061.56;6309753;22;20321;-76
2021/11/05 01:34:19;;;;;;;3.03;1.02;;;;;;;3.71;70.12;101057.41;6308455;22;20018;-75
2021/11/05 01:36:44;;;;;;;1.52;1.42;;;;;;;3.71;70.27;101061.97;6336180;22;20444;-74
2021/11/05 01:39:12;;;;;;;1.52;0.95;;;;;;;3.72;70.16;101066.34;6338971;22;20003;-75
2021/11/05 01:41:40;;;;;;;1.25;1.10;;;;;;;3.73;70.39;101065.31;6315063;22;20003;-75
2021/11/05 01:44:06;;;;;;;1.27;1.20;;;;;;;3.73;70.19;101059.91;6314807;22;20002;-76
2021/11/05 01:46:32;;;;;;;6.72;1.58;;;;;;;3.71;70.00;101056.56;6314812;22;20062;-76
2021/11/05 01:48:58;;;;;;;0.95;0.95;;;;;;;3.71;70.19;101075.50;6317064;22;20011;-74
2021/11/05 01:51:24;;;;;;;3.88;1.30;;;;;;;3.72;70.35;101074.47;6339163;22;20090;-76
2021/11/05 01:54:33;;;;;;;4.13;1.58;;;;;;;3.72;70.11;101074.47;6337935;22;20002;-75
2021/11/05 01:57:06;;;;;;;2.15;1.50;;;;;;;3.66;70.63;101078.81;6338431;22;20771;-74
2021/11/05 01:59:35;;;;;;;3.00;1.80;;;;;;;3.59;70.55;101075.25;6311398;22;20003;-75
2021/11/05 02:02:07;;;;;;;1.92;1.50;;;;;;;3.43;70.13;101054.81;6312999;22;20010;-76
2021/11/05 02:04:40;;;;;;;2.38;2.08;;;;;;;3.47;70.62;101061.50;6341466;22;20087;-76
2021/11/05 02:07:10;;;;;;;1.88;1.77;;;;;;;3.44;70.47;101061.91;6315284;22;20013;-74
2021/11/05 02:09:38;;;;;;;3.47;2.20;;;;;;;3.48;70.67;101079.41;6338959;22;20005;-76
2021/11/05 02:12:05;;;;;;;3.75;2.45;;;;;;;3.49;70.86;101086.47;6308409;22;20025;-75
2021/11/05 02:14:31;;;;;;;2.08;1.95;;;;;;;3.46;70.86;101085.00;6336219;22;20003;-76
2021/11/05 02:17:01;;;;;;;2.67;2.47;;;;;;;3.45;71.29;101082.50;6339369;22;20306;-73
2021/11/05 02:19:30;;;;;;;4.40;2.35;;;;;;;3.39;71.20;101075.19;6310121;22;19999;-75
2021/11/05 02:21:59;;;;;;;5.15;2.03;;;;;;;3.44;71.11;101083.53;6338621;22;20002;-75
2021/11/05 02:24:26;;;;;;;3.53;2.22;;;;;;;3.34;71.55;101067.69;6336162;22;19998;-74
2021/11/05 02:26:54;;;;;;;2.60;2.40;;;;;;;3.44;71.48;101088.94;6341309;22;20148;-73
2021/11/05 02:29:20;;;;;;;2.78;2.60;;;;;;;3.43;71.72;101092.69;6284880;22;20122;-73
2021/11/05 02:31:46;;;;;;;4.18;2.03;;;;;;;3.35;71.36;101073.94;6341445;22;20040;-72
2021/11/05 02:34:12;;;;;;;4.32;1.98;;;;;;;3.32;71.38;101076.00;6333411;22;20002;-74
2021/11/05 02:36:38;;;;;;;8.90;2.88;;;;;;;3.33;71.86;101079.56;6332871;22;20014;-73
2021/11/05 02:39:08;;;;;;;4.18;2.90;;;;;;;3.37;71.44;101090.78;6324139;22;20007;-73
2021/11/05 02:41:40;;;;;;;6.03;2.83;;;;;;;3.30;71.85;101088.03;6309723;22;20015;-74
2021/11/05 02:44:05;;;;;;;3.33;2.95;;;;;;;3.32;72.05;101100.34;6286605;22;20007;-73
2021/11/05 02:46:31;;;;;;;4.07;2.88;;;;;;;3.29;71.60;101084.53;6336320;22;20002;-75
2021/11/05 02:48:59;;;;;;;3.03;2.85;;;;;;;3.31;72.34;101104.09;6310006;22;20007;-74
2021/11/05 02:51:26;;;;;;;4.18;2.80;;;;;;;3.30;72.03;101098.84;6308226;22;20449;-74
2021/11/05 02:53:52;;;;;;;3.08;2.88;;;;;;;3.28;72.14;101101.75;6338486;22;20003;-73
2021/11/05 02:56:18;;;;;;;2.53;2.10;;;;;;;3.23;71.89;101098.84;6336929;22;20002;-76
2021/11/05 02:58:44;;;;;;;4.25;2.58;;;;;;;3.21;71.78;101100.91;6313111;22;20029;-76
2021/11/05 03:01:20;;;;;;;2.30;2.20;;;;;;;3.12;71.77;101091.31;6338676;22;20003;-75
2021/11/05 03:03:50;;;;;;;4.35;2.40;;;;;;;3.13;72.05;101092.97;6310277;22;20429;-74
2021/11/05 03:06:21;;;;;;;5.75;2.63;;;;;;;3.07;71.92;101093.78;6313288;22;20006;-76
2021/11/05 03:08:54;;;;;;;1.85;1.75;;;;;;;3.03;71.94;101089.81;6309127;22;20003;-75
2021/11/05 03:11:19;;;;;;;1.63;1.52;;;;;;;3.06;71.91;101097.50;6312247;22;20417;-75
2021/11/05 03:13:45;;;;;;;1.48;1.38;;;;;;;3.06;71.93;101105.63;6310283;22;20009;-76
2021/11/05 03:16:11;;;;;;;1.73;1.63;;;;;;;3.03;71.88;101108.72;6342751;22;20007;-74
2021/11/05 03:18:41;;;;;;;2.00;1.20;;;;;;;2.98;71.73;101106.63;6312401;22;20010;-74
2021/11/05 03:21:11;;;;;;;0.90;0.90;;;;;;;2.90;71.66;101099.50;6311238;22;20534;-74
2021/11/05 03:23:39;;;;;;;1.52;1.42;;;;;;;2.94;72.09;101118.84;6311265;22;20007;-75
2021/11/05 03:26:05;;;;;;;0.70;0.70;;;;;;;2.86;71.31;101103.66;6311427;22;20010;-74
2021/11/05 03:28:32;;;;;;;1.15;1.08;;;;;;;2.89;71.93;101119.47;6338310;22;20002;-73
2021/11/05 03:30:58;;;;;;;0.95;0.88;;;;;;;2.79;71.56;101108.16;6339393;22;20010;-71
2021/11/05 03:33:24;;;;;;;0.70;0.70;;;;;;;2.87;71.70;101126.91;6313071;22;20086;-74
2021/11/05 03:35:57;;;;;;;1.15;0.77;;;;;;;2.87;71.62;101132.31;6315320;22;20073;-72
2021/11/05 03:38:23;;;;;;;0.80;0.80;;;;;;;2.76;71.38;101130.16;6313560;22;20015;-72
2021/11/05 03:40:52;;;;;;;2.28;1.23;;;;;;;2.81;71.98;101138.50;6311130;22;20031;-75
2021/11/05 03:43:18;;;;;;;1.08;0.98;;;;;;;2.77;71.58;101132.69;6337064;22;20301;-75
2021/11/05 03:45:44;;;;;;;1.02;0.90;;;;;;;2.85;71.49;101145.19;6340520;22;20057;-75
2021/11/05 03:48:09;;;;;;;1.02;1.02;;;;;;;2.86;71.52;101141.47;6344197;22;20022;-75
2021/11/05 03:50:35;;;;;;;1.40;1.10;;;;;;;2.89;71.69;101151.88;6315286;22;19998;-76
2021/11/05 03:53:01;;;;;;;1.08;0.80;;;;;;;2.80;71.75;101134.13;6334410;22;19995;-75
2021/11/05 03:55:26;;;;;;;0.73;0.73;;;;;;;2.82;71.43;101140.19;6287265;22;20007;-74
2021/11/05 03:57:59;;;;;;;0.50;0.50;;;;;;;2.88;71.62;101144.78;6345493;22;20035;-76
2021/11/05 04:00:25;;;;;;;0.25;0.25;;;;;;;2.91;71.56;101155.19;6344346;22;20005;-75
2021/11/05 04:02:50;;;;;;;0.30;0.30;;;;;;;2.88;70.98;101154.78;6347788;22;20058;-76
2021/11/05 04:05:16;;;;;;;0.80;0.80;;;;;;;2.85;71.17;101153.28;6351304;22;20033;-75
2021/11/05 04:07:43;;;;;;;0.45;0.45;;;;;;;2.81;71.52;101157.41;6350302;22;20006;-76
2021/11/05 04:10:12;;;;;;;0.47;0.47;;;;;;;2.80;70.98;101166.53;6290589;22;20434;-76
2021/11/05 04:12:40;;;;;;;1.55;1.10;;;;;;;2.76;71.40;101170.66;6343376;22;20006;-77
2021/11/05 04:15:09;;;;;;;0.75;0.75;;;;;;;2.72;70.72;101172.13;6342524;22;20002;-76
2021/11/05 04:17:36;;;;;;;0.80;0.80;;;;;;;2.62;70.63;101173.25;6339624;22;20001;-75
2021/11/05 04:21:36;;;;;;;;;;;;;;;;;;;;;
2021/11/05 04:27:55;;;;;;;0.30;0.30;;;;;;;2.48;70.96;101166.06;6312451;22;20087;-77
2021/11/05 04:31:13;;;;;;;2.08;0.38;;;;;;;2.64;70.62;101193.84;6337204;22;20029;-78
2021/11/05 04:33:38;;;;;;;1.20;1.10;;;;;;;2.53;70.58;101187.94;6263408;22;20020;-76
2021/11/05 04:36:05;;;;;;;0.85;0.85;;;;;;;2.53;71.16;101195.22;6257723;22;20058;-76
2021/11/05 04:38:31;;;;;;;0.80;0.80;;;;;;;2.43;71.62;101185.56;6255813;22;20027;-78
2021/11/05 04:40:59;;;;;;;0.60;0.60;;;;;;;2.49;70.89;101200.16;6283621;22;20006;-76
2021/11/05 04:43:28;;;;;;;1.20;0.50;;;;;;;2.40;71.01;101190.53;6259060;22;20031;-76
2021/11/05 04:50:22;;;;;;;2.30;0.25;;;;;;;2.39;70.79;101218.53;6159631;22;20475;-75
2021/11/05 04:56:51;;;;;;;0.40;0.40;;;;;;;2.28;71.28;101211.78;6276810;22;20053;-75
2021/11/05 05:00:05;;;;;;;1.95;0.70;;;;;;;2.22;70.76;101213.41;6274860;22;20295;-75
2021/11/05 05:02:31;;;;;;;0.35;0.35;;;;;;;2.12;70.88;101204.78;6274387;22;20082;-77
2021/11/05 05:05:00;;;;;;;0.57;0.57;;;;;;;2.04;71.39;101196.78;6248901;22;20101;-75
2021/11/05 05:07:25;;;;;;;0.50;0.50;;;;;;;2.03;71.44;101204.06;6248165;22;20000;-77
2021/11/05 05:09:53;;;;;;;0.75;0.75;;;;;;;2.03;71.12;101211.28;6194541;22;20022;-76
2021/11/05 05:12:18;;;;;;;0.90;0.90;;;;;;;2.07;70.89;101215.28;6271801;22;20042;-75
2021/11/05 05:14:44;;;;;;;0.60;0.60;;;;;;;1.95;71.11;101196.06;6271294;22;20367;-76
2021/11/05 05:17:16;;;;;;;1.58;0.80;;;;;;;1.97;71.58;101201.28;6274317;22;20007;-77
2021/11/05 05:19:50;;;;;;;1.35;1.20;;;;;;;1.95;70.97;101203.34;6272896;22;20039;-76
2021/11/05 05:22:15;;;;;;;1.40;1.02;;;;;;;1.89;71.77;101208.44;6248320;22;20074;-77
2021/11/05 05:24:48;;;;;;;2.15;0.70;;;;;;;1.88;71.85;101209.50;6222313;22;20000;-77
2021/11/05 05:27:13;;;;;;;2.13;1.42;;;;;;;1.86;71.70;101216.09;6274726;22;20003;-74
2021/11/05 05:29:39;;;;;;;1.90;1.65;;;;;;;1.82;71.15;101210.22;6224037;22;20427;-75
2021/11/05 05:32:05;;;;;;;0.93;0.93;;;;;;;1.85;71.48;101226.03;6223472;22;20102;-75
2021/11/05 05:34:31;;;;;;;0.70;0.52;;;;;;;1.74;71.44;101223.84;6309140;22;20030;-75
2021/11/05 05:36:56;;;;;;;0.65;0.60;;;;;;;1.76;71.31;101223.66;6312213;22;20006;-75
2021/11/05 05:39:22;;;;;;;0.88;0.70;;;;;;;1.69;71.76;101221.69;6338303;22;20010;-76
2021/11/05 05:41:48;;;;;;;4.03;0.57;;;;;;;1.70;71.41;101223.34;6308126;22;20429;-75
2021/11/05 05:44:15;;;;;;;0.70;0.57;;;;;;;1.71;71.84;101224.22;6308675;22;20380;-76
2021/11/05 05:46:41;;;;;;;1.20;0.40;;;;;;;1.78;71.88;101241.28;6258729;22;20003;-77
2021/11/05 05:49:06;;;;;;;0.70;0.40;;;;;;;1.78;72.16;101246.69;6306230;22;20374;-76
2021/11/05 05:51:34;;;;;;;0.30;0.30;;;;;;;1.62;71.74;101219.94;6334321;22;20010;-76
2021/11/05 05:54:03;;;;;;;0.55;0.40;;;;;;;1.69;71.92;101239.72;6338076;22;20003;-78
2021/11/05 05:56:31;;;;;;;0.35;0.35;;;;;;;1.71;72.11;101243.09;6279555;22;20566;-76
2021/11/05 05:58:56;;;;;;;0.55;0.55;;;;;;;1.63;71.56;101235.09;6335303;22;19999;-77
2021/11/05 06:01:22;;;;;;;0.22;0.22;;;;;;;1.63;71.54;101237.78;6308077;22;20011;-79
2021/11/05 06:03:47;;;;;;;0.85;0.63;;;;;;;1.70;71.68;101254.91;6335852;22;20077;-76
2021/11/05 06:06:13;;;;;;;1.58;1.48;;;;;;;1.67;72.33;101257.97;6307214;22;20064;-76
2021/11/05 06:08:41;;;;;;;2.20;2.10;;;;;;;1.62;72.04;101257.69;6336187;22;20061;-76
2021/11/05 06:11:07;;;;;;;1.40;1.30;;;;;;;1.64;71.84;101261.03;6338156;22;20006;-75
2021/11/05 06:13:33;;;;;;;1.33;1.27;;;;;;;1.59;72.46;101268.84;6335117;22;20016;-76
2021/11/05 06:15:59;;;;;;;1.13;1.13;;;;;;;1.56;71.61;101276.28;6258652;22;20334;-75
2021/11/05 06:18:25;;;;;;;1.48;1.02;;;;;;;1.52;72.71;101274.97;6333913;22;20286;-75
2021/11/05 06:20:53;;;;;;;1.13;0.80;;;;;;;1.45;71.71;101263.25;6336024;22;20007;-76
2021/11/05 06:23:18;;;;;;;0.65;0.65;;;;;;;1.46;71.75;101264.94;6335304;22;20010;-76
2021/11/05 06:25:44;;;;;;;0.68;0.45;;;;;;;1.39;72.64;101259.44;6310677;22;20011;-76
2021/11/05 06:28:12;;;;;;;0.43;0.43;;;;;;;1.37;72.18;101266.03;6260014;22;20002;-76
2021/11/05 06:30:38;;;;;;;0.73;0.73;;;;;;;1.36;72.12;101264.38;6338875;22;20079;-75
2021/11/05 06:33:11;;;;;;;1.27;0.85;;;;;;;1.34;72.18;101271.78;6313064;22;20042;-75
2021/11/05 06:35:39;;;;;;;2.40;2.20;;;;;;;1.35;72.30;101273.47;6290123;22;20064;-77
2021/11/05 06:38:07;;;;;;;3.72;1.27;;;;;;;1.43;72.54;101292.28;6264031;22;20006;-76
2021/11/05 06:40:33;;;;;;;1.40;1.30;;;;;;;1.40;72.35;101287.22;6312867;22;20006;-75
2021/11/05 06:43:01;;;;;;;1.17;1.08;;;;;;;1.44;73.04;101287.72;6290366;22;20041;-74
2021/11/05 06:45:29;;;;;;;0.82;0.82;;;;;;;1.32;72.54;101263.06;6313482;22;20007;-77
2021/11/05 06:47:55;;;;;;;0.80;0.80;;;;;;;1.36;72.06;101285.94;6310983;22;20007;-76
2021/11/05 06:50:21;;;;;;;0.88;0.88;;;;;;;1.31;72.14;101277.56;6337635;22;20290;-75
2021/11/05 06:52:47;;;;;;;2.75;1.23;;;;;;;1.27;72.54;101278.94;6285053;22;20006;-76
2021/11/05 06:56:31;;;;;;;1.20;1.15;;;;;;;1.21;72.99;101270.59;6310491;22;20094;-76
2021/11/05 07:06:17;;;;;;;;;;;;;;;;;;;;;
2021/11/05 07:08:43;;;;;;;2.25;1.02;;;;;;;1.30;72.43;101303.69;6277640;22;20089;-75
2021/11/05 07:11:09;;;;;;;2.38;1.55;;;;;;;1.29;72.42;101302.00;6311455;22;20113;-77
2021/11/05 07:13:34;;;;;;;1.70;1.38;;;;;;;1.41;73.17;101320.41;6341312;22;20044;-75
2021/11/05 07:16:05;;;;;;;3.22;0.77;;;;;;;1.44;72.54;101312.78;6313527;22;20287;-77
2021/11/05 07:18:32;;;;;;;0.73;0.73;;;;;;;1.46;72.99;101318.84;6291218;22;19999;-79
2021/11/05 07:21:09;;;;;;;;;;;;;;;;;;;;;
2021/11/05 07:23:34;;;;;;;0.77;0.75;;;;;;;1.46;73.08;101308.06;6341203;22;20092;-76
2021/11/05 07:26:12;;;;;;;0.75;0.73;;;;;;;1.60;72.31;101322.56;6340942;22;20002;-78
2021/11/05 07:28:37;;;;;;;0.60;0.60;;;;;;;1.71;72.57;101332.09;6312667;22;20005;-75
2021/11/05 07:31:03;;;;;;;1.17;1.08;;;;;;;1.82;72.92;101345.09;6340561;22;19999;-79
2021/11/05 07:33:31;;;;;;;0.80;0.80;;;;;;;1.85;72.74;101344.72;6340143;22;20021;-77
2021/11/05 07:35:56;;;;;;;1.63;1.33;;;;;;;1.82;72.48;101345.09;6315265;22;20067;-76
2021/11/05 07:38:24;;;;;;;3.60;1.83;;;;;;;1.95;72.74;101359.78;6312555;22;20011;-77
2021/11/05 07:40:51;;;;;;;2.13;2.03;;;;;;;2.03;72.84;101371.34;6263577;22;20003;-75
2021/11/05 07:43:49;;;;;;;5.20;1.75;;;;;;;2.17;72.74;101380.44;6287877;22;20003;-75
2021/11/05 07:46:42;;;;;;;0.98;0.98;;;;;;;2.17;73.41;101366.94;6331716;22;20006;-76
2021/11/05 07:49:26;;;;;;;1.10;1.00;;;;;;;2.31;73.42;101357.16;6313738;22;19995;-77
2021/11/05 07:52:08;;;;;;;1.38;0.90;;;;;;;2.69;72.51;101383.16;6316073;22;20003;-76
2021/11/05 07:54:34;;;;;;;1.10;0.95;;;;;;;2.96;72.49;101395.09;6312877;22;20013;-75
2021/11/05 07:56:59;;;;;;;1.25;1.15;;;;;;;3.11;72.75;101386.91;6339133;22;20003;-75
2021/11/05 07:59:25;;;;;;;3.33;0.90;;;;;;;3.29;72.63;101397.28;6341033;22;20003;-75
2021/11/05 08:01:50;;;;;;;0.60;0.60;;;;;;;3.46;72.44;101396.00;6338156;22;20019;-75
2021/11/05 08:04:18;;;;;;;1.70;0.57;;;;;;;3.67;72.31;101402.41;6339321;22;20007;-78
2021/11/05 08:06:44;;;;;;;0.50;0.40;;;;;;;3.79;72.44;101389.16;6266279;22;20093;-80
2021/11/05 08:09:10;;;;;;;0.82;0.73;;;;;;;4.10;72.03;101417.66;6341903;22;20476;-78
2021/11/05 08:11:36;;;;;;;1.15;1.02;;;;;;;4.16;71.82;101408.75;6316748;22;20002;-78
2021/11/05 08:14:05;;;;;;;1.48;0.93;;;;;;;4.24;72.05;101414.00;6317238;22;20005;-81
2021/11/05 08:16:32;;;;;;;0.75;0.70;;;;;;;4.30;72.04;101421.31;6342093;22;20034;-76
2021/11/05 08:18:57;;;;;;;0.77;0.77;;;;;;;4.36;71.72;101409.69;6339956;22;20017;-76
2021/11/05 08:21:23;;;;;;;2.13;0.70;;;;;;;4.50;71.66;101413.31;6286778;22;20011;-77
2021/11/05 08:23:51;;;;;;;3.42;0.70;;;;;;;4.53;71.62;101406.66;6324154;22;20018;-77
2021/11/05 08:26:20;;;;;;;1.98;1.15;;;;;;;4.50;71.34;101401.66;6355830;22;20018;-80
2021/11/05 08:28:46;;;;;;;0.68;0.43;;;;;;;4.66;71.72;101412.13;6333008;22;20017;-79
2021/11/05 08:31:15;;;;;;;0.75;0.47;;;;;;;4.87;72.14;101408.44;6336282;22;20011;-81
2021/11/05 08:33:41;;;;;;;0.40;0.40;;;;;;;5.22;71.52;101429.19;6359749;22;20018;-76
2021/11/05 08:36:14;;;;;;;0.30;0.30;;;;;;;5.40;71.32;101424.00;6335739;22;20038;-79
2021/11/05 08:38:44;;;;;;;0.40;0.40;;;;;;;5.46;70.04;101421.47;6302625;22;20015;-76
2021/11/05 08:41:16;;;;;;;0.43;0.43;;;;;;;5.62;69.93;101425.66;6334847;22;20010;-78
2021/11/05 08:43:45;;;;;;;0.30;0.30;;;;;;;5.96;70.76;101435.47;6280546;22;20007;-76
2021/11/05 08:46:16;;;;;;;0.43;0.43;;;;;;;6.54;70.51;101445.63;6335771;22;20026;-75
2021/11/05 08:48:42;;;;;;;0.40;0.35;;;;;;;7.11;69.56;101445.78;6335152;22;19999;-76
2021/11/05 08:51:10;;;;;;;0.93;0.40;;;;;;;7.75;69.24;101451.19;6334978;22;20484;-77
2021/11/05 08:53:37;;;;;;;0.20;0.20;;;;;;;8.46;67.73;101445.53;6318210;22;20785;-77
2021/11/05 08:56:02;;;;;;;0.30;0.30;;;;;;;9.26;66.89;101453.50;6331010;22;20082;-76
2021/11/05 08:58:28;;;;;;;0.20;0.20;;;;;;;10.40;65.53;101459.03;6307068;22;20030;-77
2021/11/05 09:00:54;;;;;;;1.20;0.40;;;;;;;11.53;63.75;101461.25;6359005;22;20009;-77
2021/11/05 09:03:20;;;;;;;0.20;0.20;;;;;;;12.61;62.28;101465.66;6356722;22;20064;-77
2021/11/05 09:05:45;;;;;;;0.55;0.45;;;;;;;13.49;61.03;101463.94;6344370;22;20049;-77
2021/11/05 09:08:11;;;;;;;0.30;0.30;;;;;;;14.28;59.30;101476.09;6345124;22;20133;-78
2021/11/05 09:10:36;;;;;;;0.32;0.32;;;;;;;14.99;58.27;101475.66;6341492;22;20006;-78
2021/11/05 09:13:04;;;;;;;0.30;0.30;;;;;;;15.52;57.50;101477.44;6314768;22;20007;-78
2021/11/05 09:15:30;;;;;;;0.40;0.40;;;;;;;16.07;57.17;101472.25;6350445;22;20030;-77
2021/11/05 09:18:07;;;;;;;0.30;0.30;;;;;;;16.73;56.50;101475.94;6323513;22;20007;-78
2021/11/05 09:20:37;;;;;;;0.52;0.50;;;;;;;17.24;55.74;101486.81;6356832;22;20009;-77
2021/11/05 09:23:03;;;;;;;0.80;0.80;;;;;;;17.55;54.39;101488.53;6338134;22;20006;-77
2021/11/05 09:25:28;;;;;;;0.65;0.65;;;;;;;17.85;54.15;101495.78;6335851;22;20070;-76
2021/11/05 09:27:54;;;;;;;0.50;0.32;;;;;;;18.43;54.10;101496.94;6335486;22;20002;-75
2021/11/05 09:30:22;;;;;;;3.85;0.68;;;;;;;19.17;52.77;101499.38;6334164;22;20433;-75
2021/11/05 09:32:54;;;;;;;0.40;0.40;;;;;;;19.95;51.92;101507.44;6334246;22;20018;-76
2021/11/05 09:35:21;;;;;;;1.55;0.40;;;;;;;20.69;50.04;101503.84;6307755;22;20444;-76
2021/11/05 09:37:49;;;;;;;0.52;0.50;;;;;;;21.38;49.16;101509.34;6335921;22;20018;-76
2021/11/05 09:40:17;;;;;;;0.40;0.40;;;;;;;21.76;47.95;101502.66;6331157;22;20318;-77
2021/11/05 09:42:46;;;;;;;0.50;0.50;;;;;;;22.07;47.42;101502.69;6335729;22;20010;-75
2021/11/05 09:45:17;;;;;;;0.93;0.93;;;;;;;22.59;46.69;101512.47;6335517;22;20010;-77
2021/11/05 09:47:43;;;;;;;1.00;0.90;;;;;;;23.16;46.22;101515.31;6307839;22;20415;-75
2021/11/05 09:50:12;;;;;;;0.52;0.50;;;;;;;23.81;45.32;101518.28;6331918;22;20369;-76
2021/11/05 09:52:38;;;;;;;0.80;0.60;;;;;;;24.23;42.05;101515.78;6333994;22;19999;-76
2021/11/05 09:55:05;;;;;;;0.68;0.68;;;;;;;24.56;40.60;101508.75;6332517;22;20003;-76
2021/11/05 09:57:31;;;;;;;0.47;0.45;;;;;;;24.90;40.29;101516.22;6280785;22;20069;-75
2021/11/05 09:59:57;;;;;;;0.52;0.40;;;;;;;25.36;39.56;101512.81;6335047;22;20694;-74
2021/11/05 10:02:24;;;;;;;0.20;0.20;;;;;;;25.82;38.68;101519.34;6335569;22;20007;-74
2021/11/05 10:04:51;;;;;;;0.20;0.20;;;;;;;26.42;37.96;101527.50;6334778;22;20017;-73
2021/11/05 10:07:16;;;;;;;1.85;0.32;;;;;;;26.92;37.35;101529.19;6306535;22;20060;-76
2021/11/05 10:09:54;;;;;;;0.10;0.10;;;;;;;27.51;36.56;101532.63;6309419;22;20015;-76
2021/11/05 10:12:25;;;;;;;0.30;0.30;;;;;;;27.80;33.46;101528.69;6332699;22;20327;-77
2021/11/05 10:14:57;;;;;;;0.90;0.50;;;;;;;27.78;29.73;101533.00;6336878;22;20002;-76
2021/11/05 10:17:25;;;;;;;0.50;0.50;;;;;;;27.39;28.94;101522.25;6336415;22;20030;-76
2021/11/05 10:19:58;;;;;;;1.20;0.40;;;;;;;27.32;30.30;101522.81;6333243;22;19999;-77
2021/11/05 10:23:00;;;;;;;0.17;0.17;;;;;;;27.97;31.07;101532.34;6310170;22;20005;-78
2021/11/05 10:25:30;;;;;;;0.40;0.40;;;;;;;28.17;30.21;101528.50;6283806;22;20122;-77
2021/11/05 10:28:25;;;;;;;0.22;0.20;;;;;;;28.95;30.51;101532.91;6306977;22;20002;-76
2021/11/05 10:31:03;;;;;;;1.33;0.30;;;;;;;29.55;29.32;101539.09;6336736;22;20002;-76
2021/11/05 10:33:38;;;;;;;0.68;0.50;;;;;;;29.74;27.85;101541.13;6337079;22;20010;-76
2021/11/05 10:36:05;;;;;;;0.63;0.50;;;;;;;29.71;26.01;101543.88;6309776;22;20030;-76
2021/11/05 10:38:33;;;;;;;2.05;0.40;;;;;;;29.59;26.26;101542.03;6335773;22;20018;-77
2021/11/05 10:41:01;;;;;;;0.82;0.57;;;;;;;29.63;26.57;101545.72;6332715;22;20006;-76
2021/11/05 10:43:42;;;;;;;2.35;0.50;;;;;;;29.93;25.19;101543.16;6333876;22;20051;-76
2021/11/05 10:46:30;;;;;;;1.60;0.52;;;;;;;29.99;24.58;101540.84;6334055;22;20077;-79
2021/11/05 10:49:03;;;;;;;1.00;0.55;;;;;;;30.01;24.37;101543.28;6336320;22;19999;-77
2021/11/05 10:51:31;;;;;;;1.80;0.73;;;;;;;29.98;24.29;101544.03;6307496;22;20759;-76
2021/11/05 10:53:58;;;;;;;0.70;0.50;;;;;;;29.84;22.86;101545.38;6334856;22;20013;-72
2021/11/05 10:56:25;;;;;;;2.10;0.63;;;;;;;29.62;23.20;101555.38;6333517;22;20037;-72
2021/11/05 10:58:50;;;;;;;1.13;0.40;;;;;;;29.47;22.83;101548.63;6334638;22;20003;-74
2021/11/05 11:01:19;;;;;;;1.67;0.32;;;;;;;29.56;23.87;101546.38;6307944;22;20010;-74
2021/11/05 11:03:49;;;;;;;0.38;0.35;;;;;;;29.82;23.95;101552.53;6335932;22;20152;-72
2021/11/05 11:06:24;;;;;;;5.45;0.65;;;;;;;29.87;22.97;101550.28;6310193;22;20672;-74
2021/11/05 11:08:51;;;;;;;0.30;0.30;;;;;;;30.07;23.54;101539.00;6337650;22;20003;-74
2021/11/05 11:11:28;;;;;;;0.57;0.10;;;;;;;30.16;23.66;101541.56;6338718;22;20056;-73
2021/11/05 11:13:57;;;;;;;0.50;0.20;;;;;;;30.40;23.56;101544.03;6339794;22;20034;-74
2021/11/05 11:16:33;;;;;;;0.20;0.20;;;;;;;30.97;23.78;101551.84;6340106;22;20409;-74
2021/11/05 11:19:01;;;;;;;1.05;0.38;;;;;;;31.37;22.70;101550.44;6336686;22;20007;-74
2021/11/05 11:21:33;;;;;;;0.55;0.30;;;;;;;31.55;22.54;101544.22;6338414;22;20021;-72
2021/11/05 11:24:00;;;;;;;0.38;0.20;;;;;;;31.65;22.24;101550.03;6335910;22;20070;-72
2021/11/05 11:26:27;;;;;;;0.77;0.38;;;;;;;31.90;21.15;101551.53;6340369;22;20028;-75
2021/11/05 11:28:54;;;;;;;0.30;0.28;;;;;;;31.98;21.42;101544.75;6338870;22;20034;-73
2021/11/05 11:31:20;;;;;;;0.22;0.10;;;;;;;32.44;22.32;101555.78;6341638;22;20006;-76
2021/11/05 11:33:47;;;;;;;2.83;0.30;;;;;;;32.91;21.26;101556.19;6339469;22;20037;-75
2021/11/05 11:36:13;;;;;;;0.40;0.40;;;;;;;33.11;20.21;101551.06;6336928;22;20672;-74
2021/11/05 11:38:39;;;;;;;0.40;0.22;;;;;;;33.00;19.74;101550.19;6304287;22;20098;-77
2021/11/05 11:41:11;;;;;;;1.55;0.52;;;;;;;32.91;19.49;101550.53;6304782;22;20045;-76
2021/11/05 11:43:38;;;;;;;0.28;0.25;;;;;;;32.91;20.10;101544.06;6336175;22;19995;-76
2021/11/05 11:46:05;;;;;;;0.80;0.45;;;;;;;33.12;20.00;101549.88;6336285;22;20007;-76
2021/11/05 11:48:36;;;;;;;0.20;0.20;;;;;;;33.58;20.44;101548.50;6307665;22;20011;-74
2021/11/05 11:51:26;;;;;;;1.98;0.20;;;;;;;34.49;20.84;101541.91;6337026;22;20362;-75
2021/11/05 11:54:02;;;;;;;0.17;0.08;;;;;;;35.35;20.36;101534.53;6334280;22;20015;-79
2021/11/05 11:56:46;;;;;;;1.15;0.22;;;;;;;35.32;17.68;101526.81;6336128;22;20030;-77
2021/11/05 11:59:14;;;;;;;0.57;0.30;;;;;;;34.70;17.38;101537.44;6309774;22;19999;-77
2021/11/05 12:01:43;;;;;;;0.75;0.38;;;;;;;34.67;18.64;101538.22;6336638;22;20022;-77
2021/11/05 12:04:38;;;;;;;0.32;0.28;;;;;;;34.19;18.78;101531.69;6309613;22;20059;-78
2021/11/05 12:07:07;;;;;;;0.20;0.15;;;;;;;33.04;19.13;101531.19;6243784;22;20060;-75
2021/11/05 12:09:39;;;;;;;1.08;0.20;;;;;;;31.92;19.68;101529.34;6310526;22;20010;-76
2021/11/05 12:12:26;;;;;;;0.25;0.20;;;;;;;30.66;20.30;101536.84;6282998;22;20007;-76
2021/11/05 12:15:21;;;;;;;0.28;0.10;;;;;;;29.68;21.47;101536.97;6337516;22;20718;-75
2021/11/05 12:18:18;;;;;;;;;;;;;;;;;;;;;
2021/11/05 12:20:44;;;;;;;0.40;0.20;;;;;;;27.52;22.72;101543.53;6210766;22;20091;-77
2021/11/05 12:23:41;;;;;;;0.43;0.10;;;;;;;26.51;23.56;101535.81;6336750;22;20437;-77
2021/11/05 12:36:52;;;;;;;0.47;0.10;;;;;;;23.25;27.21;101540.44;6290665;22;20474;-75
2021/11/05 12:39:36;;;;;;;0.82;0.20;;;;;;;22.81;27.64;101540.31;6277453;22;20016;-75
2021/11/05 12:42:03;;;;;;;0.20;0.10;;;;;;;22.76;28.49;101536.84;6277183;22;20338;-76
2021/11/05 12:44:55;;;;;;;0.20;0.10;;;;;;;23.07;28.68;101538.72;6251511;22;19999;-76
2021/11/05 12:47:52;;;;;;;0.28;0.10;;;;;;;23.80;28.21;101538.19;6278939;22;20031;-76
2021/11/05 12:50:28;;;;;;;0.35;0.10;;;;;;;23.98;27.71;101544.63;6249182;22;20003;-76
2021/11/05 12:52:55;;;;;;;0.20;0.13;;;;;;;23.96;27.97;101542.16;6249542;22;20422;-73
2021/11/05 12:55:23;;;;;;;0.10;0.00;;;;;;;23.77;28.10;101531.31;6277450;22;20003;-75